Almoradi, Spain
Current Conditions -  °F | °C
As of 2:30 AM on Friday 28 Nov 2014 (Local Time) from LEAL Reporting Station
Scattered Clouds Scattered Clouds  
Wind Chill: 63°   Ceiling: Unl
Heat Index: 63°   Visibility: 6mi
Dew Point: 55°   Wind: 8mph
Humidity: 77%   Direction: 180°S
Pressure: 29.38"   Gusts: NA
Location:  38.11°N, 0.79°W
Report Text: LEAL 280130Z 18007KT 140V210 9999 FEW015 SCT025 17/13 Q0995 NOSIG
Loading
Personal Weather Stations






























Interactive Weather Map New forecast layout! Learn more

10-Day Weather Forecast

Advertisements
Track Severe Weather on mobile